Accueil
METAR-TAF:

METAR-TAF

Aéroports :

Aéroport Sandro-Pertini de Turin Caselle

Turin, Italie

latitude: 45-13N, longitude: 007-39E, altitude: 301 m

Observation

Le bulletin a été fait il y a 34 minutes, à 06:50 UTC
Vent 3 kt de sud-ouest, variant entre sud/sud-ouest et ouest
Température 23°C
Humidité 73%
Pression 1017 hPa
Visibilité 10 km ou plus
Nuages épars à une hauteur de 14000 ft

METAR: LIMF 110650Z 23003KT 200V270 9999 SCT140 23/18 Q1017

Heure: 09:24 (07:24 UTC)

Prévision

Le bulletin a été fait il y a 2 heures et 24 minutes, à 05:00 UTC
Prévision valable du 11 à 06 UTC au 12 à 06 UTC
Vent 5 kt de direction variable
Visibilité 10 km ou plus
Quelques nuages à une hauteur de 3000 ft
Probabilité 30% :
Temporairement
du 11 à 12 UTC au 11 à 18 UTC
orage, pluie

TAF: LIMF 110500Z 1106/1206 VRB05KT 9999 FEW030 PROB30 TEMPO 1112/1118 TSRA

Observations et prévisions météorologiques de plus de 4000 aéroports (messages METAR et TAF).

Les stations disponibles sont représentées par des disques jaunes et rouges sur la carte.

Passer la souris dessus pour voir le nom de la station.

Cliquer dessus pour voir les observations et prévisions météorologiques.

Pour changer de carte: cliquez sur les boutons verts avec une croix noire pour zoomer, sur le bouton vert avec un tiret pour effectuer un zoom arrière, ou sur les flèches vertes pour les cartes adjacentes.


METAR-TAF: